Time;durP1;ratioP1;P1;durP2;ratioP2;P2;SDS_P1;SDS_P2;PMS_P1;PMS_P2;Temp;Humidity;BMP_temperature;BMP_pressure;BME280_temperature;BME280_humidity;BME280_pressure;Samples;Min_cycle;Max_cycle;Signal;HPM_P1;HPM_P2
2023/02/16 00:00:25;;;;;;;9.70;2.20;;;;;;;2.73;48.98;101622.98;105099;1257;59957;-54
2023/02/16 00:02:53;;;;;;;5.20;1.20;;;;;;;2.73;48.90;101625.41;105298;1261;65224;-54
2023/02/16 00:05:24;;;;;;;5.00;1.40;;;;;;;2.73;48.88;101622.80;105204;1257;62651;-53
2023/02/16 00:08:01;;;;;;;7.40;2.10;;;;;;;2.73;48.77;101620.21;105100;1257;65571;-54
2023/02/16 00:10:32;;;;;;;4.90;1.30;;;;;;;2.74;48.76;101613.79;105136;1259;60672;-54
2023/02/16 00:15:48;;;;;;;5.30;1.60;;;;;;;2.74;48.70;101614.13;105571;1261;65139;-55
2023/02/16 00:18:18;;;;;;;4.30;1.70;;;;;;;2.74;48.79;101621.05;105182;1263;71714;-55
2023/02/16 00:20:48;;;;;;;4.90;1.40;;;;;;;2.74;48.62;101617.25;105140;1257;65012;-55
2023/02/16 00:23:17;;;;;;;4.10;1.00;;;;;;;2.75;48.69;101614.28;105079;1264;59741;-54
2023/02/16 00:25:46;;;;;;;3.70;1.20;;;;;;;2.75;48.76;101612.87;105298;1260;61310;-55
2023/02/16 00:28:17;;;;;;;6.10;2.30;;;;;;;2.77;48.59;101615.45;105097;1257;74246;-55
2023/02/16 00:30:45;;;;;;;4.90;1.30;;;;;;;2.78;48.54;101616.79;104921;1259;62721;-56
2023/02/16 00:33:16;;;;;;;4.90;1.40;;;;;;;2.79;48.51;101609.33;105131;1258;64761;-54
2023/02/16 00:35:44;;;;;;;4.10;1.30;;;;;;;2.79;48.53;101612.95;104989;1260;59657;-54
2023/02/16 00:38:12;;;;;;;7.70;1.50;;;;;;;2.80;48.68;101611.20;105076;1260;61116;-55
2023/02/16 00:40:40;;;;;;;5.10;1.40;;;;;;;2.81;48.69;101607.36;105063;1257;64252;-55
2023/02/16 00:43:33;;;;;;;4.40;1.40;;;;;;;2.80;48.61;101609.29;105523;1261;62595;-53
2023/02/16 00:46:01;;;;;;;3.60;1.10;;;;;;;2.79;48.52;101617.80;105075;1258;64885;-53
2023/02/16 00:48:31;;;;;;;7.50;2.00;;;;;;;2.79;48.57;101618.67;105187;1260;59669;-52
2023/02/16 00:50:59;;;;;;;7.20;2.90;;;;;;;2.80;48.83;101613.45;104847;1260;59961;-54
2023/02/16 00:53:28;;;;;;;4.40;1.10;;;;;;;2.80;48.85;101611.73;105191;1257;73142;-54
2023/02/16 00:55:56;;;;;;;4.60;1.10;;;;;;;2.81;48.80;101610.65;105156;1258;62715;-53
2023/02/16 00:58:26;;;;;;;5.90;1.80;;;;;;;2.79;48.88;101610.00;105406;1259;66432;-54
2023/02/16 01:01:05;;;;;;;4.40;1.10;;;;;;;2.79;48.91;101608.63;105110;1262;59672;-53
2023/02/16 01:03:35;;;;;;;3.50;1.10;;;;;;;2.77;49.11;101607.12;105019;1258;60672;-53
2023/02/16 01:11:40;;;;;;;5.50;1.70;;;;;;;2.76;49.03;101606.63;104912;1257;65070;-52
2023/02/16 01:14:10;;;;;;;5.20;1.10;;;;;;;2.76;49.01;101595.17;104934;1257;60418;-52
2023/02/16 01:16:40;;;;;;;6.20;1.70;;;;;;;2.76;48.95;101585.49;105135;1262;60350;-53
2023/02/16 01:19:10;;;;;;;4.00;1.10;;;;;;;2.75;49.03;101582.75;105350;1257;65020;-53
2023/02/16 01:21:39;;;;;;;4.00;1.70;;;;;;;2.73;49.10;101584.86;105163;1257;62892;-53
2023/02/16 01:24:07;;;;;;;5.60;1.40;;;;;;;2.71;49.20;101589.44;105271;1263;73375;-52
2023/02/16 01:26:38;;;;;;;6.60;2.30;;;;;;;2.71;49.12;101592.05;105238;1257;61113;-53
2023/02/16 01:29:13;;;;;;;5.70;1.80;;;;;;;2.72;49.08;101592.52;105381;1258;60447;-54
2023/02/16 01:31:42;;;;;;;9.00;2.70;;;;;;;2.73;49.31;101591.80;104998;1264;66358;-53
2023/02/16 01:34:11;;;;;;;6.80;3.70;;;;;;;2.71;49.53;101586.84;105137;1263;63320;-54
2023/02/16 01:36:45;;;;;;;5.60;2.40;;;;;;;2.69;49.76;101586.55;105587;1260;65027;-52
2023/02/16 01:39:17;;;;;;;5.70;1.40;;;;;;;2.68;49.79;101586.58;105216;1260;60534;-53
2023/02/16 01:42:04;;;;;;;4.50;1.40;;;;;;;2.67;49.83;101580.36;105016;1260;60548;-53
2023/02/16 01:44:37;;;;;;;3.60;1.10;;;;;;;2.67;49.84;101582.63;105037;1262;66178;-54
2023/02/16 01:47:28;;;;;;;6.10;2.10;;;;;;;2.67;49.98;101586.29;104955;1262;61389;-53
2023/02/16 01:49:57;;;;;;;4.90;1.80;;;;;;;2.64;50.09;101588.08;105550;1257;64555;-53
2023/02/16 01:52:36;;;;;;;5.80;1.40;;;;;;;2.63;50.09;101588.64;105176;1259;60476;-52
2023/02/16 01:55:14;;;;;;;4.50;1.20;;;;;;;2.60;50.14;101591.13;104981;1257;62254;-53
2023/02/16 01:57:48;;;;;;;7.30;2.40;;;;;;;2.58;50.24;101594.14;105319;1262;66265;-53
2023/02/16 02:00:48;;;;;;;4.10;1.20;;;;;;;2.57;50.29;101591.90;105050;1260;62706;-53
2023/02/16 02:06:15;;;;;;;6.10;2.10;;;;;;;2.53;50.51;101590.44;105161;1260;60479;-54
2023/02/16 02:08:58;;;;;;;5.70;2.10;;;;;;;2.53;50.58;101591.48;104948;1257;60584;-53
2023/02/16 02:12:05;;;;;;;4.90;1.50;;;;;;;2.53;50.58;101591.31;105265;1257;66000;-53
2023/02/16 02:14:39;;;;;;;4.70;1.80;;;;;;;2.54;50.63;101589.21;104801;1257;63802;-52
2023/02/16 02:17:10;;;;;;;4.60;1.40;;;;;;;2.55;50.66;101594.21;105359;1258;64963;-53
2023/02/16 02:20:17;;;;;;;4.60;1.20;;;;;;;2.55;50.49;101588.84;105050;1263;61466;-54
2023/02/16 02:23:33;;;;;;;3.50;1.20;;;;;;;2.54;50.56;101597.54;104983;1263;60867;-53
2023/02/16 02:26:08;;;;;;;5.10;1.50;;;;;;;2.52;50.74;101602.96;105087;1257;66263;-53
2023/02/16 02:28:48;;;;;;;7.30;2.40;;;;;;;2.50;50.72;101602.64;105132;1257;62573;-53
2023/02/16 02:31:53;;;;;;;5.30;1.90;;;;;;;2.51;50.82;101608.02;105212;1258;64802;-52
2023/02/16 02:34:37;;;;;;;9.30;1.80;;;;;;;2.52;50.74;101604.02;105548;1258;61209;-53
2023/02/16 02:37:11;;;;;;;5.90;1.60;;;;;;;2.53;50.65;101602.23;104985;1257;60562;-53
2023/02/16 02:39:57;;;;;;;14.80;2.40;;;;;;;2.53;51.05;101599.47;105445;1258;65894;-53
2023/02/16 02:42:40;;;;;;;4.60;1.50;;;;;;;2.50;51.33;101597.29;104862;1263;62970;-54
2023/02/16 02:45:29;;;;;;;4.70;1.40;;;;;;;2.48;51.42;101593.54;105431;1257;65198;-54
2023/02/16 02:47:58;;;;;;;6.50;1.90;;;;;;;2.47;51.58;101595.13;105268;1260;60412;-53
2023/02/16 02:50:37;;;;;;;4.50;1.40;;;;;;;2.46;51.71;101597.58;105099;1258;61265;-53
2023/02/16 02:53:11;;;;;;;5.60;1.90;;;;;;;2.45;51.77;101601.25;105072;1257;65273;-54
2023/02/16 03:01:20;;;;;;;4.90;1.40;;;;;;;2.40;51.61;101597.55;105428;1259;60454;-55
2023/02/16 03:03:50;;;;;;;6.40;1.80;;;;;;;2.39;51.71;101598.45;105026;1258;61096;-54
2023/02/16 03:06:22;;;;;;;4.60;1.70;;;;;;;2.39;51.96;101599.48;105240;1257;66189;-55
2023/02/16 03:08:59;;;;;;;4.60;1.40;;;;;;;2.39;52.17;101599.48;105479;1259;62595;-55
2023/02/16 03:14:25;;;;;;;3.90;1.30;;;;;;;2.38;52.38;101598.29;105155;1263;60454;-53
2023/02/16 03:30:56;;;;;;;4.50;1.60;;;;;;;2.44;52.07;101587.23;105520;1258;60568;-52
2023/02/16 03:33:24;;;;;;;5.90;1.10;;;;;;;2.46;52.12;101589.96;105252;1260;66645;-52
2023/02/16 03:35:53;;;;;;;4.70;1.20;;;;;;;2.45;52.42;101585.98;105067;1258;62414;-53
2023/02/16 03:38:21;;;;;;;5.50;1.90;;;;;;;2.43;52.74;101582.08;104827;1263;73876;-54
2023/02/16 03:40:50;;;;;;;6.60;1.60;;;;;;;2.40;52.89;101581.45;105130;1258;60626;-52
2023/02/16 03:43:18;;;;;;;5.90;2.00;;;;;;;2.36;53.00;101579.48;104948;1264;60038;-54
2023/02/16 03:45:46;;;;;;;5.30;1.50;;;;;;;2.33;52.95;101572.98;105275;1262;74801;-55
2023/02/16 03:48:15;;;;;;;4.50;1.40;;;;;;;2.29;53.17;101574.64;105098;1262;70984;-54
2023/02/16 03:50:43;;;;;;;3.90;1.40;;;;;;;2.27;53.14;101573.13;105056;1260;75150;-55
2023/02/16 03:53:12;;;;;;;3.70;1.10;;;;;;;2.26;53.18;101570.94;105098;1257;60552;-55
2023/02/16 03:55:42;;;;;;;6.30;1.40;;;;;;;2.24;53.11;101573.37;105278;1259;61373;-55
2023/02/16 03:58:15;;;;;;;4.70;1.70;;;;;;;2.22;52.95;101576.21;104917;1263;66015;-53
2023/02/16 04:00:44;;;;;;;5.90;1.80;;;;;;;2.21;52.88;101577.10;105248;1259;63041;-51
2023/02/16 04:03:12;;;;;;;5.90;1.70;;;;;;;2.18;52.72;101572.15;105062;1258;73657;-51
2023/02/16 04:05:40;;;;;;;6.20;1.80;;;;;;;2.16;52.75;101569.11;105106;1259;60650;-53
2023/02/16 04:08:09;;;;;;;4.80;1.80;;;;;;;2.16;52.78;101568.25;105041;1258;60511;-52
2023/02/16 04:10:38;;;;;;;6.30;1.90;;;;;;;2.15;52.84;101566.52;105225;1261;73998;-52
2023/02/16 04:13:07;;;;;;;5.70;1.40;;;;;;;2.16;52.73;101566.85;105044;1259;70372;-52
2023/02/16 04:15:35;;;;;;;6.00;3.10;;;;;;;2.16;52.93;101567.53;105073;1262;73640;-53
2023/02/16 04:18:04;;;;;;;6.60;2.20;;;;;;;2.18;52.83;101562.98;104918;1258;60514;-56
2023/02/16 04:20:33;;;;;;;4.00;1.30;;;;;;;2.21;52.74;101560.50;104998;1257;60466;-54
2023/02/16 04:23:02;;;;;;;6.90;2.10;;;;;;;2.21;52.72;101558.06;105050;1262;74613;-55
2023/02/16 04:25:31;;;;;;;5.90;1.30;;;;;;;2.19;52.72;101558.80;105344;1260;71300;-55
2023/02/16 04:28:00;;;;;;;7.00;1.70;;;;;;;2.16;52.75;101556.98;105105;1261;72058;-56
2023/02/16 04:30:29;;;;;;;4.30;1.80;;;;;;;2.13;52.79;101555.33;105087;1262;60500;-56
2023/02/16 04:32:58;;;;;;;5.00;1.20;;;;;;;2.08;52.99;101549.73;105125;1257;61036;-56
2023/02/16 04:35:27;;;;;;;4.30;1.30;;;;;;;2.07;53.07;101544.06;105161;1263;74795;-55
2023/02/16 04:37:55;;;;;;;7.00;1.60;;;;;;;2.06;53.24;101540.62;105059;1257;73218;-56
2023/02/16 04:40:23;;;;;;;5.10;1.60;;;;;;;2.06;53.33;101536.30;105081;1262;73705;-56
2023/02/16 04:42:51;;;;;;;5.20;1.50;;;;;;;2.06;53.34;101535.77;105199;1257;60840;-56
2023/02/16 04:45:20;;;;;;;4.00;1.20;;;;;;;2.07;53.30;101535.58;105097;1257;61812;-57
2023/02/16 04:47:48;;;;;;;4.80;1.50;;;;;;;2.07;53.44;101531.42;105113;1260;74797;-55
2023/02/16 04:50:16;;;;;;;6.70;1.80;;;;;;;2.06;53.55;101529.89;105334;1260;71244;-54
2023/02/16 04:52:45;;;;;;;5.50;1.90;;;;;;;2.04;53.53;101532.54;105108;1258;73680;-54
2023/02/16 04:55:14;;;;;;;5.20;2.40;;;;;;;2.02;53.75;101532.41;105422;1260;61154;-55
2023/02/16 04:57:42;;;;;;;5.50;2.50;;;;;;;2.03;53.89;101532.20;105218;1262;61149;-53
2023/02/16 05:00:11;;;;;;;5.50;1.90;;;;;;;2.04;53.95;101537.20;105064;1262;74904;-53
2023/02/16 05:02:40;;;;;;;5.30;1.80;;;;;;;2.04;54.09;101538.59;105292;1260;71190;-54
2023/02/16 05:05:08;;;;;;;4.10;0.90;;;;;;;2.02;54.25;101535.00;105220;1260;73697;-54
2023/02/16 05:07:37;;;;;;;6.30;1.20;;;;;;;1.98;54.46;101530.25;105182;1263;60377;-54
2023/02/16 05:10:07;;;;;;;8.20;2.80;;;;;;;1.94;54.65;101528.29;105040;1257;61378;-54
2023/02/16 05:15:23;;;;;;;4.60;1.50;;;;;;;1.89;55.14;101530.85;105288;1262;61269;-55
2023/02/16 05:17:51;;;;;;;6.70;2.50;;;;;;;1.84;55.40;101530.61;105184;1262;73773;-56
2023/02/16 05:21:28;;;;;;;4.50;1.60;;;;;;;1.82;55.62;101530.16;105254;1257;60703;-55
2023/02/16 05:23:12;;;;;;;5.40;1.80;;;;;;;1.83;55.73;101528.23;105317;1258;60419;-55
2023/02/16 05:25:40;;;;;;;7.60;1.80;;;;;;;1.83;55.92;101526.65;105172;1258;72510;-55
2023/02/16 05:28:08;;;;;;;7.70;2.60;;;;;;;1.84;55.95;101525.08;105919;1260;71673;-55
2023/02/16 05:30:37;;;;;;;4.90;1.50;;;;;;;1.84;56.16;101526.45;105264;1257;64767;-55
2023/02/16 05:33:05;;;;;;;4.50;1.50;;;;;;;1.85;56.44;101526.78;105387;1257;60338;-55
2023/02/16 05:35:34;;;;;;;5.00;1.80;;;;;;;1.86;56.51;101527.81;105188;1257;60568;-55
2023/02/16 05:38:02;;;;;;;8.40;2.40;;;;;;;1.85;56.72;101525.77;105238;1258;73554;-55
2023/02/16 05:40:31;;;;;;;5.80;2.10;;;;;;;1.83;56.99;101525.27;105243;1257;71206;-56
2023/02/16 05:42:59;;;;;;;6.70;2.80;;;;;;;1.83;57.15;101522.34;105147;1262;73639;-56
2023/02/16 05:45:28;;;;;;;6.80;2.00;;;;;;;1.84;57.29;101523.70;105103;1257;60525;-56
2023/02/16 05:47:56;;;;;;;7.20;3.30;;;;;;;1.86;57.42;101525.22;104999;1262;60431;-57
2023/02/16 05:50:24;;;;;;;6.80;2.30;;;;;;;1.86;57.42;101525.02;104927;1262;74752;-55
2023/02/16 05:52:52;;;;;;;6.30;2.10;;;;;;;1.86;57.59;101523.65;106401;1258;71698;-54
2023/02/16 05:55:21;;;;;;;9.20;2.60;;;;;;;1.88;57.72;101527.24;105183;1259;71304;-55
2023/02/16 05:57:49;;;;;;;5.40;2.20;;;;;;;1.88;57.86;101525.31;105115;1261;60507;-54
2023/02/16 06:00:17;;;;;;;6.60;1.60;;;;;;;1.90;57.89;101522.70;105046;1257;60552;-50
2023/02/16 06:02:50;;;;;;;4.70;1.60;;;;;;;1.91;57.98;101523.51;105142;1261;74872;-54
2023/02/16 06:05:19;;;;;;;11.00;3.10;;;;;;;1.92;58.07;101528.33;105195;1260;71272;-54
2023/02/16 06:07:47;;;;;;;6.90;1.60;;;;;;;1.93;58.09;101528.66;105200;1258;73726;-53
2023/02/16 06:10:16;;;;;;;7.90;2.00;;;;;;;1.94;58.21;101526.89;105151;1258;60675;-54
2023/02/16 06:12:46;;;;;;;3.40;1.10;;;;;;;2.02;58.18;101527.04;105197;1262;61648;-53
2023/02/16 06:15:15;;;;;;;5.50;1.40;;;;;;;2.15;58.13;101524.80;105194;1260;74825;-52
2023/02/16 06:17:44;;;;;;;7.10;1.70;;;;;;;2.28;57.97;101523.25;105427;1257;71271;-50
2023/02/16 06:20:12;;;;;;;9.40;4.30;;;;;;;2.38;57.90;101529.01;105236;1258;73415;-54
2023/02/16 06:22:41;;;;;;;5.00;1.70;;;;;;;2.46;57.90;101527.60;105237;1258;60644;-54
2023/02/16 06:25:10;;;;;;;5.10;2.10;;;;;;;2.52;57.81;101529.35;105480;1259;61347;-56
2023/02/16 06:27:39;;;;;;;5.40;2.20;;;;;;;2.53;57.89;101530.16;105181;1262;74824;-54
2023/02/16 06:30:08;;;;;;;4.40;1.40;;;;;;;2.56;57.82;101528.52;105355;1258;72609;-54
2023/02/16 06:32:38;;;;;;;5.40;1.90;;;;;;;2.55;57.81;101528.21;105195;1262;74176;-54
2023/02/16 06:35:07;;;;;;;6.00;1.80;;;;;;;2.54;57.90;101528.75;105082;1257;60550;-60
2023/02/16 06:59:00;;;;;;;12.00;2.80;;;;;;;3.35;56.65;101526.15;102834;1288;605208;-61
2023/02/16 07:01:28;;;;;;;11.40;5.20;;;;;;;3.70;55.78;101521.58;105107;1268;135878;-63
2023/02/16 07:03:55;;;;;;;11.80;5.50;;;;;;;3.62;55.77;101522.88;105371;1263;60099;-61
2023/02/16 07:06:23;;;;;;;5.50;2.00;;;;;;;3.54;55.94;101518.65;105347;1263;73563;-62
2023/02/16 07:08:51;;;;;;;9.90;5.40;;;;;;;3.47;56.08;101516.63;104863;1263;62832;-64
2023/02/16 07:11:19;;;;;;;6.30;2.70;;;;;;;3.38;56.26;101520.37;105314;1263;73729;-62
2023/02/16 07:13:45;;;;;;;5.50;1.90;;;;;;;3.29;56.36;101512.30;105290;1263;59604;-62
2023/02/16 07:16:14;;;;;;;9.80;5.20;;;;;;;3.19;56.56;101513.32;105438;1263;60996;-63
2023/02/16 07:18:41;;;;;;;7.40;2.20;;;;;;;3.12;56.81;101511.27;106077;1263;73007;-60
2023/02/16 07:21:08;;;;;;;7.90;2.50;;;;;;;3.05;57.00;101508.38;106161;1260;71435;-63
2023/02/16 07:23:36;;;;;;;6.30;2.80;;;;;;;2.96;57.25;101505.36;106229;1259;73667;-61
2023/02/16 07:26:03;;;;;;;6.10;1.70;;;;;;;2.94;57.45;101504.38;105929;1262;59667;-62
2023/02/16 07:28:30;;;;;;;11.00;4.40;;;;;;;2.96;57.57;101504.33;105736;1258;61173;-62
2023/02/16 07:30:57;;;;;;;4.60;1.70;;;;;;;2.97;57.57;101503.08;105741;1260;73904;-62
2023/02/16 07:33:24;;;;;;;6.40;1.80;;;;;;;3.06;57.46;101504.19;105382;1257;71259;-62
2023/02/16 07:35:51;;;;;;;9.40;4.90;;;;;;;3.19;57.36;101497.55;105297;1263;73810;-62
2023/02/16 07:38:18;;;;;;;7.70;2.00;;;;;;;3.30;56.97;101494.63;105786;1261;60876;-63
2023/02/16 07:40:45;;;;;;;8.90;5.10;;;;;;;3.36;56.95;101494.93;105854;1257;61661;-64
2023/02/16 07:43:14;;;;;;;5.70;1.70;;;;;;;3.39;56.91;101490.33;105735;1262;74309;-62
2023/02/16 07:45:41;;;;;;;8.50;1.90;;;;;;;3.40;56.77;101485.79;105833;1260;71264;-64
2023/02/16 07:48:08;;;;;;;8.50;2.70;;;;;;;3.42;56.73;101482.95;105763;1263;72081;-62
2023/02/16 07:50:36;;;;;;;5.90;1.90;;;;;;;3.43;56.69;101481.18;105930;1260;60430;-62
2023/02/16 07:53:03;;;;;;;9.20;5.00;;;;;;;3.42;56.55;101478.59;105677;1257;60913;-62
2023/02/16 07:55:31;;;;;;;7.20;1.90;;;;;;;3.42;56.67;101478.80;105812;1260;72645;-62
2023/02/16 07:57:58;;;;;;;6.20;2.10;;;;;;;3.39;56.55;101474.88;105766;1257;71222;-61
2023/02/16 08:00:26;;;;;;;6.60;2.20;;;;;;;3.36;56.70;101474.46;105146;1261;72659;-61
2023/02/16 08:02:53;;;;;;;7.10;1.90;;;;;;;3.35;56.79;101471.72;105404;1261;60386;-63
2023/02/16 08:05:20;;;;;;;5.20;2.00;;;;;;;3.36;56.75;101466.31;105046;1261;61115;-61
2023/02/16 08:07:47;;;;;;;8.80;3.50;;;;;;;3.34;56.87;101465.49;105171;1263;74076;-62
2023/02/16 08:10:15;;;;;;;6.50;2.20;;;;;;;3.36;57.00;101462.50;107491;1262;71052;-61
2023/02/16 08:12:44;;;;;;;7.20;2.40;;;;;;;3.39;56.92;101461.70;106066;1257;72786;-60
2023/02/16 08:15:11;;;;;;;5.70;2.00;;;;;;;3.39;56.91;101458.75;106139;1262;59568;-62
2023/02/16 08:17:38;;;;;;;7.80;2.40;;;;;;;3.43;56.90;101457.08;106344;1260;61145;-61
2023/02/16 08:20:06;;;;;;;10.60;5.10;;;;;;;3.45;56.77;101461.15;105994;1262;75292;-61
2023/02/16 08:22:34;;;;;;;11.90;3.30;;;;;;;3.48;56.62;101460.89;105915;1260;70844;-61
2023/02/16 08:25:00;;;;;;;7.40;2.10;;;;;;;3.48;56.50;101460.55;105603;1258;72257;-61
2023/02/16 08:27:27;;;;;;;5.60;2.10;;;;;;;3.49;56.62;101457.20;105773;1260;60274;-62
2023/02/16 08:29:54;;;;;;;10.10;5.90;;;;;;;3.53;56.64;101460.89;105754;1262;60074;-63
2023/02/16 08:32:21;;;;;;;7.80;2.10;;;;;;;3.57;56.75;101463.54;105779;1260;72141;-63
2023/02/16 08:34:52;;;;;;;7.40;2.50;;;;;;;3.62;56.70;101463.88;105820;1261;71556;-62
2023/02/16 08:37:19;;;;;;;6.50;2.70;;;;;;;3.64;56.46;101459.84;105765;1258;72703;-65
2023/02/16 08:39:47;;;;;;;7.60;2.80;;;;;;;3.65;56.38;101457.39;105736;1260;60146;-65
2023/02/16 08:42:16;;;;;;;6.00;2.30;;;;;;;3.67;56.56;101457.13;105706;1261;60073;-63
2023/02/16 08:44:43;;;;;;;10.60;5.00;;;;;;;3.73;56.67;101455.89;105726;1263;73669;-61
2023/02/16 08:47:10;;;;;;;6.30;2.20;;;;;;;3.78;56.44;101457.27;105754;1263;69911;-65
2023/02/16 08:49:38;;;;;;;9.80;2.50;;;;;;;3.78;56.26;101457.79;105865;1257;73980;-64
2023/02/16 08:52:04;;;;;;;13.20;6.10;;;;;;;3.77;56.42;101457.52;105755;1259;60347;-64
2023/02/16 08:54:33;;;;;;;6.90;2.10;;;;;;;3.81;56.57;101460.30;105780;1260;61931;-61
2023/02/16 08:57:01;;;;;;;5.30;1.60;;;;;;;3.93;56.33;101452.59;105320;1262;73867;-62
2023/02/16 08:59:29;;;;;;;10.60;5.00;;;;;;;4.07;56.04;101452.10;105660;1257;71415;-64
2023/02/16 09:01:56;;;;;;;6.80;2.60;;;;;;;4.17;55.83;101452.59;105731;1262;73697;-63
2023/02/16 09:04:24;;;;;;;9.30;5.30;;;;;;;4.21;55.56;101446.90;105738;1258;60391;-63
2023/02/16 09:06:51;;;;;;;10.80;5.80;;;;;;;4.23;55.62;101444.77;105775;1262;60111;-64
2023/02/16 09:09:18;;;;;;;6.90;2.10;;;;;;;4.28;55.42;101443.52;105717;1262;74026;-62
2023/02/16 09:11:45;;;;;;;5.70;2.70;;;;;;;4.32;55.44;101443.23;105792;1259;71080;-63
2023/02/16 09:14:13;;;;;;;11.70;4.20;;;;;;;4.35;55.48;101438.23;105766;1263;73456;-64
2023/02/16 09:16:44;;;;;;;4.60;1.70;;;;;;;4.38;54.62;101438.66;105696;1259;60375;-62
2023/02/16 09:19:16;;;;;;;8.60;2.20;;;;;;;4.34;54.23;101431.66;105680;1260;61414;-63
2023/02/16 09:21:43;;;;;;;5.10;1.70;;;;;;;4.31;54.31;101429.87;105859;1262;74083;-63
2023/02/16 09:24:11;;;;;;;6.00;1.80;;;;;;;4.31;54.53;101427.11;105729;1263;71331;-63
2023/02/16 09:26:41;;;;;;;10.20;4.50;;;;;;;4.36;54.77;101424.31;105843;1260;73522;-65
2023/02/16 09:29:11;;;;;;;6.70;2.60;;;;;;;4.43;54.83;101421.25;105740;1263;60957;-62
2023/02/16 09:31:39;;;;;;;6.50;1.90;;;;;;;4.50;54.58;101415.95;105824;1258;60424;-64
2023/02/16 09:34:17;;;;;;;4.60;1.50;;;;;;;4.57;54.19;101420.56;105752;1258;73945;-62
2023/02/16 09:36:44;;;;;;;5.00;1.60;;;;;;;4.59;53.40;101416.47;105827;1262;62641;-62
2023/02/16 09:39:11;;;;;;;7.50;2.10;;;;;;;4.55;52.92;101414.02;105724;1257;71833;-63
2023/02/16 09:42:15;;;;;;;8.10;3.60;;;;;;;4.54;52.90;101412.85;105757;1260;60412;-63
2023/02/16 09:45:01;;;;;;;7.70;4.30;;;;;;;4.58;52.86;101413.56;105789;1263;59525;-63
2023/02/16 09:47:30;;;;;;;6.60;1.70;;;;;;;4.61;52.84;101410.15;105829;1263;65088;-63
2023/02/16 09:49:58;;;;;;;6.70;2.20;;;;;;;4.61;52.79;101410.65;105878;1263;70135;-64
2023/02/16 09:52:36;;;;;;;6.40;2.50;;;;;;;4.65;52.52;101403.38;105867;1260;73675;-62
2023/02/16 09:55:09;;;;;;;5.70;2.10;;;;;;;4.70;52.18;101406.51;105839;1263;60861;-63
2023/02/16 09:58:03;;;;;;;4.60;1.60;;;;;;;4.73;52.09;101403.60;105793;1258;60082;-64
2023/02/16 10:00:32;;;;;;;5.60;2.00;;;;;;;4.77;51.91;101402.90;106073;1262;65442;-64
2023/02/16 10:03:31;;;;;;;8.00;4.00;;;;;;;4.80;51.97;101394.83;105802;1260;71068;-65
2023/02/16 10:06:28;;;;;;;7.90;3.80;;;;;;;4.86;51.45;101394.39;105782;1262;64917;-63
2023/02/16 10:09:06;;;;;;;9.50;3.80;;;;;;;4.89;51.24;101387.65;105796;1261;59689;-62
2023/02/16 10:11:47;;;;;;;5.00;1.80;;;;;;;4.93;51.24;101381.25;105498;1258;59643;-63
2023/02/16 10:14:36;;;;;;;9.60;3.90;;;;;;;4.98;51.38;101380.33;105709;1261;73773;-63
2023/02/16 10:17:05;;;;;;;10.70;4.10;;;;;;;5.04;50.59;101375.58;105703;1262;62757;-64
2023/02/16 10:19:46;;;;;;;5.40;1.30;;;;;;;5.05;50.46;101371.39;105603;1263;73421;-63
2023/02/16 10:22:15;;;;;;;5.70;2.40;;;;;;;5.06;50.55;101367.87;105770;1260;60579;-62
2023/02/16 10:24:56;;;;;;;5.60;2.50;;;;;;;5.06;50.20;101368.90;105461;1259;61303;-62
2023/02/16 10:27:23;;;;;;;8.70;4.20;;;;;;;5.01;50.13;101369.61;105214;1260;65342;-63
2023/02/16 10:29:55;;;;;;;4.30;1.60;;;;;;;4.95;50.11;101365.87;105512;1257;71108;-64
2023/02/16 10:32:25;;;;;;;9.90;4.50;;;;;;;4.96;50.66;101360.42;105786;1263;72327;-60
2023/02/16 10:35:14;;;;;;;15.80;5.10;;;;;;;5.03;50.66;101358.55;105663;1260;60345;-64
2023/02/16 10:38:17;;;;;;;11.20;5.20;;;;;;;5.11;50.49;101353.41;105225;1260;59739;-62
2023/02/16 10:41:25;;;;;;;6.20;2.00;;;;;;;5.14;50.50;101353.08;105227;1263;65149;-64
2023/02/16 10:44:03;;;;;;;6.30;2.20;;;;;;;5.20;50.51;101348.84;105354;1261;62842;-62
2023/02/16 10:46:35;;;;;;;7.70;4.10;;;;;;;5.24;50.16;101347.13;105157;1263;65060;-61
2023/02/16 10:49:02;;;;;;;10.70;5.20;;;;;;;5.20;49.73;101349.20;105376;1258;60400;-63
2023/02/16 10:51:35;;;;;;;5.80;2.60;;;;;;;5.16;50.13;101343.10;105486;1260;60393;-64
2023/02/16 10:54:07;;;;;;;9.10;4.60;;;;;;;5.16;50.10;101343.94;105833;1258;73376;-62
2023/02/16 10:56:51;;;;;;;6.70;1.70;;;;;;;5.16;50.15;101343.23;105811;1263;62490;-61
2023/02/16 10:59:21;;;;;;;8.80;5.20;;;;;;;5.16;50.11;101340.81;105817;1263;65227;-63
2023/02/16 11:01:57;;;;;;;10.20;2.40;;;;;;;5.14;49.99;101336.40;105887;1259;60569;-62
2023/02/16 11:04:40;;;;;;;14.80;5.30;;;;;;;5.12;49.93;101332.15;105874;1257;59778;-62
2023/02/16 11:07:17;;;;;;;12.70;6.10;;;;;;;5.10;49.78;101322.47;105750;1258;65262;-62
2023/02/16 11:09:55;;;;;;;5.70;2.80;;;;;;;5.12;50.00;101321.02;105853;1257;62485;-63
2023/02/16 11:12:42;;;;;;;17.80;2.80;;;;;;;5.16;50.18;101319.11;105306;1258;64739;-62
2023/02/16 11:15:12;;;;;;;7.10;3.00;;;;;;;5.23;50.26;101314.78;105771;1258;60457;-63
2023/02/16 11:17:53;;;;;;;8.90;4.20;;;;;;;5.31;50.25;101316.38;105814;1257;60729;-63
2023/02/16 11:20:39;;;;;;;15.10;7.20;;;;;;;5.36;49.95;101311.10;105141;1263;66016;-64
2023/02/16 11:23:37;;;;;;;13.10;7.20;;;;;;;5.42;50.02;101308.59;105658;1263;61348;-63
2023/02/16 11:26:11;;;;;;;6.80;2.80;;;;;;;5.47;50.08;101304.90;105847;1263;65074;-63
2023/02/16 11:28:43;;;;;;;10.80;3.20;;;;;;;5.46;49.31;101302.70;105771;1263;61663;-62
2023/02/16 11:31:38;;;;;;;8.90;3.90;;;;;;;5.37;49.09;101296.09;107357;1261;60472;-61
2023/02/16 11:34:28;;;;;;;7.50;3.00;;;;;;;5.30;49.60;101289.77;105241;1258;66190;-64
2023/02/16 11:37:07;;;;;;;6.70;2.60;;;;;;;5.27;49.37;101286.27;105801;1263;61561;-64
2023/02/16 11:39:38;;;;;;;11.10;7.20;;;;;;;5.26;49.60;101284.55;105752;1263;64985;-64
2023/02/16 11:42:17;;;;;;;8.00;3.30;;;;;;;5.28;49.71;101278.56;105701;1261;60562;-62
2023/02/16 11:44:51;;;;;;;6.30;2.30;;;;;;;5.28;49.56;101272.80;105827;1261;61809;-63
2023/02/16 11:47:32;;;;;;;9.60;5.60;;;;;;;5.30;49.62;101266.64;105794;1258;66190;-63
2023/02/16 11:50:28;;;;;;;10.00;5.90;;;;;;;5.31;49.50;101261.91;105873;1263;61628;-63
2023/02/16 11:53:11;;;;;;;8.80;3.60;;;;;;;5.29;49.23;101257.81;105919;1261;65037;-63
2023/02/16 11:55:40;;;;;;;9.90;4.20;;;;;;;5.27;49.41;101254.63;105755;1264;60565;-64
2023/02/16 12:22:50;;;;;;;10.90;5.20;;;;;;;6.21;47.93;101214.78;103272;1288;605666;-61
2023/02/16 12:25:50;;;;;;;10.20;4.90;;;;;;;6.47;46.97;101203.94;104997;1269;95485;-62
2023/02/16 12:28:24;;;;;;;8.30;4.70;;;;;;;6.36;46.87;101198.55;105229;1265;59276;-62
2023/02/16 12:31:01;;;;;;;4.90;1.80;;;;;;;6.26;46.94;101196.62;105085;1272;64644;-65
2023/02/16 12:34:02;;;;;;;10.00;5.30;;;;;;;6.14;46.93;101197.00;104826;1267;62595;-63
2023/02/16 12:36:44;;;;;;;12.40;5.50;;;;;;;6.01;47.12;101191.20;104743;1266;64862;-64
2023/02/16 12:39:25;;;;;;;10.30;4.70;;;;;;;5.94;47.44;101187.81;105330;1266;59297;-62
2023/02/16 12:42:01;;;;;;;12.90;5.40;;;;;;;5.95;47.74;101183.45;105227;1266;60992;-62
2023/02/16 12:44:37;;;;;;;;;;;;;;;5.98;47.78;101183.17;105302;1268;73197;-65
2023/02/16 12:47:07;;;;;;;10.20;2.90;;;;;;;5.98;47.80;101184.02;105338;1267;62374;-64
2023/02/16 12:49:55;;;;;;;8.70;5.00;;;;;;;5.98;47.67;101183.36;105058;1266;64034;-58
2023/02/16 12:53:10;;;;;;;8.30;2.40;;;;;;;5.94;47.57;101181.05;106523;1264;59628;-60
2023/02/16 12:55:47;;;;;;;10.70;5.40;;;;;;;5.86;47.51;101175.17;105226;1263;60025;-60
2023/02/16 12:58:14;;;;;;;9.70;5.20;;;;;;;5.79;47.80;101171.14;105697;1260;64197;-64
2023/02/16 13:00:44;;;;;;;6.30;2.20;;;;;;;5.75;47.99;101169.41;105700;1262;62489;-63
2023/02/16 13:03:13;;;;;;;8.80;4.50;;;;;;;5.70;48.20;101168.94;105256;1262;64944;-64
2023/02/16 13:05:40;;;;;;;7.90;4.50;;;;;;;5.66;48.05;101162.72;105748;1260;59682;-62
2023/02/16 13:08:23;;;;;;;5.30;2.00;;;;;;;5.62;48.02;101158.70;105499;1261;61335;-64
2023/02/16 13:10:54;;;;;;;7.70;3.60;;;;;;;5.58;48.12;101161.84;105689;1261;65361;-62
2023/02/16 13:13:24;;;;;;;9.70;5.00;;;;;;;5.54;48.27;101167.95;105495;1260;62587;-62